sensor_id;sensor_type;location;lat;lon;timestamp;pressure;altitude;pressure_sealevel;temperature;humidity
20889;BME280;10604;51.976;7.594;2023-06-26T00:00:13;100549.38;;;28.86;52.76
20889;BME280;10604;51.976;7.594;2023-06-26T00:02:39;100552.91;;;28.78;52.85
20889;BME280;10604;51.976;7.594;2023-06-26T00:05:04;100547.50;;;28.78;52.79
20889;BME280;10604;51.976;7.594;2023-06-26T00:07:30;100545.78;;;28.85;52.80
20889;BME280;10604;51.976;7.594;2023-06-26T00:09:56;100537.63;;;28.69;53.22
20889;BME280;10604;51.976;7.594;2023-06-26T00:12:21;100537.09;;;28.65;53.16
20889;BME280;10604;51.976;7.594;2023-06-26T00:14:46;100537.94;;;28.58;53.46
20889;BME280;10604;51.976;7.594;2023-06-26T00:17:11;100538.59;;;28.52;53.15
20889;BME280;10604;51.976;7.594;2023-06-26T00:19:37;100537.59;;;28.61;53.22
20889;BME280;10604;51.976;7.594;2023-06-26T00:22:02;100535.22;;;28.58;53.26
20889;BME280;10604;51.976;7.594;2023-06-26T00:24:27;100538.94;;;28.57;53.20
20889;BME280;10604;51.976;7.594;2023-06-26T00:26:52;100528.41;;;28.37;53.98
20889;BME280;10604;51.976;7.594;2023-06-26T00:29:18;100522.47;;;27.92;54.47
20889;BME280;10604;51.976;7.594;2023-06-26T00:31:43;100521.31;;;27.69;55.45
20889;BME280;10604;51.976;7.594;2023-06-26T00:34:08;100521.28;;;27.60;55.82
20889;BME280;10604;51.976;7.594;2023-06-26T00:36:33;100519.84;;;27.48;56.19
20889;BME280;10604;51.976;7.594;2023-06-26T00:38:59;100514.41;;;27.48;56.00
20889;BME280;10604;51.976;7.594;2023-06-26T00:41:24;100515.38;;;27.39;56.20
20889;BME280;10604;51.976;7.594;2023-06-26T00:43:49;100512.81;;;27.38;56.42
20889;BME280;10604;51.976;7.594;2023-06-26T00:46:15;100516.00;;;27.33;56.37
20889;BME280;10604;51.976;7.594;2023-06-26T00:48:41;100522.94;;;27.36;56.65
20889;BME280;10604;51.976;7.594;2023-06-26T00:51:06;100520.34;;;27.26;56.64
20889;BME280;10604;51.976;7.594;2023-06-26T00:53:32;100522.44;;;27.32;56.70
20889;BME280;10604;51.976;7.594;2023-06-26T00:55:58;100511.44;;;27.59;55.82
20889;BME280;10604;51.976;7.594;2023-06-26T00:58:23;100498.25;;;27.64;55.17
20889;BME280;10604;51.976;7.594;2023-06-26T01:00:50;100504.59;;;27.81;54.95
20889;BME280;10604;51.976;7.594;2023-06-26T01:03:15;100507.06;;;27.66;55.39
20889;BME280;10604;51.976;7.594;2023-06-26T01:05:41;100506.38;;;27.56;55.51
20889;BME280;10604;51.976;7.594;2023-06-26T01:08:06;100498.59;;;27.61;55.44
20889;BME280;10604;51.976;7.594;2023-06-26T01:10:32;100499.47;;;27.44;55.37
20889;BME280;10604;51.976;7.594;2023-06-26T01:12:58;100495.69;;;27.37;55.51
20889;BME280;10604;51.976;7.594;2023-06-26T01:15:23;100496.75;;;27.44;55.55
20889;BME280;10604;51.976;7.594;2023-06-26T01:17:49;100501.44;;;27.34;55.77
20889;BME280;10604;51.976;7.594;2023-06-26T01:20:14;100490.50;;;27.18;56.34
20889;BME280;10604;51.976;7.594;2023-06-26T01:28:10;100488.84;;;26.81;57.32
20889;BME280;10604;51.976;7.594;2023-06-26T01:30:44;100478.81;;;26.92;56.67
20889;BME280;10604;51.976;7.594;2023-06-26T01:33:10;100476.09;;;26.92;57.13
20889;BME280;10604;51.976;7.594;2023-06-26T01:35:36;100470.59;;;26.83;57.35
20889;BME280;10604;51.976;7.594;2023-06-26T01:40:56;100468.09;;;26.72;57.47
20889;BME280;10604;51.976;7.594;2023-06-26T01:46:08;100464.56;;;27.15;56.53
20889;BME280;10604;51.976;7.594;2023-06-26T01:48:38;100468.56;;;26.85;56.81
20889;BME280;10604;51.976;7.594;2023-06-26T01:51:05;100460.31;;;26.69;57.15
20889;BME280;10604;51.976;7.594;2023-06-26T01:53:34;100460.28;;;26.87;57.11
20889;BME280;10604;51.976;7.594;2023-06-26T01:56:08;100454.91;;;26.69;57.09
20889;BME280;10604;51.976;7.594;2023-06-26T01:58:35;100452.59;;;26.57;57.36
20889;BME280;10604;51.976;7.594;2023-06-26T02:01:02;100452.41;;;26.58;57.75
20889;BME280;10604;51.976;7.594;2023-06-26T02:03:28;100450.19;;;26.71;57.13
20889;BME280;10604;51.976;7.594;2023-06-26T02:05:53;100444.66;;;26.81;57.00
20889;BME280;10604;51.976;7.594;2023-06-26T02:08:18;100444.00;;;26.61;57.46
20889;BME280;10604;51.976;7.594;2023-06-26T02:10:43;100449.34;;;26.71;57.05
20889;BME280;10604;51.976;7.594;2023-06-26T02:13:09;100447.16;;;26.92;56.53
20889;BME280;10604;51.976;7.594;2023-06-26T02:15:34;100451.81;;;27.08;56.18
20889;BME280;10604;51.976;7.594;2023-06-26T02:17:59;100445.97;;;26.95;55.88
20889;BME280;10604;51.976;7.594;2023-06-26T02:20:24;100451.97;;;26.63;56.97
20889;BME280;10604;51.976;7.594;2023-06-26T02:22:50;100440.94;;;26.82;56.77
20889;BME280;10604;51.976;7.594;2023-06-26T02:25:15;100440.47;;;26.86;56.86
20889;BME280;10604;51.976;7.594;2023-06-26T02:27:40;100444.72;;;27.07;56.29
20889;BME280;10604;51.976;7.594;2023-06-26T02:30:07;100450.09;;;26.99;56.20
20889;BME280;10604;51.976;7.594;2023-06-26T02:32:33;100448.59;;;26.86;56.19
20889;BME280;10604;51.976;7.594;2023-06-26T02:34:58;100442.06;;;26.71;56.35
20889;BME280;10604;51.976;7.594;2023-06-26T02:37:24;100443.06;;;26.70;56.52
20889;BME280;10604;51.976;7.594;2023-06-26T02:39:49;100445.88;;;26.86;56.38
20889;BME280;10604;51.976;7.594;2023-06-26T02:42:14;100447.84;;;26.76;56.12
20889;BME280;10604;51.976;7.594;2023-06-26T02:44:39;100444.06;;;26.69;56.47
20889;BME280;10604;51.976;7.594;2023-06-26T02:47:05;100447.84;;;26.59;56.55
20889;BME280;10604;51.976;7.594;2023-06-26T02:49:30;100446.09;;;26.67;56.63
20889;BME280;10604;51.976;7.594;2023-06-26T02:51:55;100448.50;;;26.70;56.30
20889;BME280;10604;51.976;7.594;2023-06-26T02:54:20;100442.28;;;26.78;56.32
20889;BME280;10604;51.976;7.594;2023-06-26T02:56:46;100449.34;;;26.71;56.75
20889;BME280;10604;51.976;7.594;2023-06-26T02:59:11;100442.66;;;26.83;55.80
20889;BME280;10604;51.976;7.594;2023-06-26T03:01:36;100451.94;;;26.80;56.16
20889;BME280;10604;51.976;7.594;2023-06-26T03:04:01;100444.94;;;26.52;56.59
20889;BME280;10604;51.976;7.594;2023-06-26T03:06:27;100446.97;;;26.50;56.73
20889;BME280;10604;51.976;7.594;2023-06-26T03:08:52;100449.97;;;26.29;56.62
20889;BME280;10604;51.976;7.594;2023-06-26T03:11:18;100452.25;;;26.24;57.03
20889;BME280;10604;51.976;7.594;2023-06-26T03:13:43;100456.03;;;26.13;57.18
20889;BME280;10604;51.976;7.594;2023-06-26T03:16:08;100451.41;;;26.24;57.40
20889;BME280;10604;51.976;7.594;2023-06-26T03:18:34;100450.50;;;26.33;56.71
20889;BME280;10604;51.976;7.594;2023-06-26T03:20:59;100452.41;;;26.05;57.14
20889;BME280;10604;51.976;7.594;2023-06-26T03:23:25;100454.94;;;26.06;56.94
20889;BME280;10604;51.976;7.594;2023-06-26T03:25:50;100448.28;;;26.28;56.51
20889;BME280;10604;51.976;7.594;2023-06-26T03:28:15;100450.22;;;26.08;56.71
20889;BME280;10604;51.976;7.594;2023-06-26T03:30:41;100452.91;;;26.36;56.42
20889;BME280;10604;51.976;7.594;2023-06-26T03:33:06;100468.94;;;26.20;56.43
20889;BME280;10604;51.976;7.594;2023-06-26T03:35:31;100469.47;;;26.05;56.60
20889;BME280;10604;51.976;7.594;2023-06-26T03:37:57;100459.66;;;26.22;56.51
20889;BME280;10604;51.976;7.594;2023-06-26T03:40:22;100463.22;;;26.05;56.70
20889;BME280;10604;51.976;7.594;2023-06-26T03:42:47;100464.97;;;25.96;57.21
20889;BME280;10604;51.976;7.594;2023-06-26T03:45:13;100452.63;;;26.11;56.79
20889;BME280;10604;51.976;7.594;2023-06-26T03:47:38;100448.59;;;26.16;56.69
20889;BME280;10604;51.976;7.594;2023-06-26T03:50:03;100460.44;;;26.15;56.91
20889;BME280;10604;51.976;7.594;2023-06-26T03:52:29;100451.41;;;26.24;56.78
20889;BME280;10604;51.976;7.594;2023-06-26T03:54:56;100462.03;;;26.35;56.50
20889;BME280;10604;51.976;7.594;2023-06-26T03:57:22;100462.47;;;26.30;55.92
20889;BME280;10604;51.976;7.594;2023-06-26T03:59:47;100460.50;;;26.23;56.24
20889;BME280;10604;51.976;7.594;2023-06-26T04:02:12;100465.06;;;26.04;56.98
20889;BME280;10604;51.976;7.594;2023-06-26T04:04:37;100462.53;;;26.21;56.39
20889;BME280;10604;51.976;7.594;2023-06-26T04:07:03;100456.16;;;26.39;56.21
20889;BME280;10604;51.976;7.594;2023-06-26T04:09:28;100460.19;;;26.35;55.94
20889;BME280;10604;51.976;7.594;2023-06-26T04:11:53;100464.50;;;26.46;55.54
20889;BME280;10604;51.976;7.594;2023-06-26T04:14:18;100458.00;;;26.39;55.73
20889;BME280;10604;51.976;7.594;2023-06-26T04:16:43;100463.97;;;26.42;53.83
20889;BME280;10604;51.976;7.594;2023-06-26T04:19:10;100460.25;;;26.61;53.97
20889;BME280;10604;51.976;7.594;2023-06-26T04:21:35;100461.03;;;26.71;52.95
20889;BME280;10604;51.976;7.594;2023-06-26T04:24:00;100458.53;;;26.60;52.76
20889;BME280;10604;51.976;7.594;2023-06-26T04:26:26;100457.41;;;26.88;52.44
20889;BME280;10604;51.976;7.594;2023-06-26T04:28:52;100464.63;;;26.98;52.59
20889;BME280;10604;51.976;7.594;2023-06-26T04:31:18;100468.81;;;27.18;51.15
20889;BME280;10604;51.976;7.594;2023-06-26T04:33:43;100473.06;;;27.46;50.75
20889;BME280;10604;51.976;7.594;2023-06-26T04:36:08;100484.22;;;27.43;49.36
20889;BME280;10604;51.976;7.594;2023-06-26T04:38:33;100478.25;;;27.65;49.74
20889;BME280;10604;51.976;7.594;2023-06-26T04:40:59;100476.69;;;27.55;47.46
20889;BME280;10604;51.976;7.594;2023-06-26T04:43:25;100472.97;;;27.98;49.31
20889;BME280;10604;51.976;7.594;2023-06-26T04:45:50;100479.19;;;28.32;46.88
20889;BME280;10604;51.976;7.594;2023-06-26T04:48:15;100485.31;;;28.34;46.85
20889;BME280;10604;51.976;7.594;2023-06-26T04:50:41;100486.66;;;28.38;47.64
20889;BME280;10604;51.976;7.594;2023-06-26T04:53:06;100491.38;;;28.28;46.10
20889;BME280;10604;51.976;7.594;2023-06-26T04:55:31;100492.66;;;28.74;46.79
20889;BME280;10604;51.976;7.594;2023-06-26T04:57:57;100486.38;;;29.06;46.00
20889;BME280;10604;51.976;7.594;2023-06-26T05:00:22;100495.88;;;29.35;45.38
20889;BME280;10604;51.976;7.594;2023-06-26T05:02:49;100494.88;;;28.79;45.29
20889;BME280;10604;51.976;7.594;2023-06-26T05:05:23;100490.97;;;28.98;44.97
20889;BME280;10604;51.976;7.594;2023-06-26T05:07:49;100490.78;;;28.99;46.06
20889;BME280;10604;51.976;7.594;2023-06-26T05:10:14;100488.44;;;29.04;45.64
20889;BME280;10604;51.976;7.594;2023-06-26T05:12:39;100493.69;;;28.98;46.27
20889;BME280;10604;51.976;7.594;2023-06-26T05:15:05;100502.97;;;29.52;45.20
20889;BME280;10604;51.976;7.594;2023-06-26T05:17:30;100498.50;;;29.67;45.27
20889;BME280;10604;51.976;7.594;2023-06-26T05:19:55;100511.59;;;29.64;45.50
20889;BME280;10604;51.976;7.594;2023-06-26T05:22:20;100506.56;;;29.44;46.06
20889;BME280;10604;51.976;7.594;2023-06-26T05:24:46;100493.50;;;29.24;46.38
20889;BME280;10604;51.976;7.594;2023-06-26T05:27:11;100502.34;;;29.01;46.84
20889;BME280;10604;51.976;7.594;2023-06-26T05:29:44;100502.31;;;29.34;46.50
20889;BME280;10604;51.976;7.594;2023-06-26T05:32:09;100494.19;;;29.09;46.97
20889;BME280;10604;51.976;7.594;2023-06-26T05:34:35;100493.38;;;29.72;46.63
20889;BME280;10604;51.976;7.594;2023-06-26T05:37:01;100501.38;;;30.13;45.43
20889;BME280;10604;51.976;7.594;2023-06-26T05:39:27;100505.84;;;29.50;46.42
20889;BME280;10604;51.976;7.594;2023-06-26T05:41:52;100503.31;;;29.49;46.41
20889;BME280;10604;51.976;7.594;2023-06-26T05:44:17;100510.66;;;29.87;46.29
20889;BME280;10604;51.976;7.594;2023-06-26T05:46:43;100504.19;;;29.88;46.16
20889;BME280;10604;51.976;7.594;2023-06-26T05:49:08;100510.84;;;29.86;45.98
20889;BME280;10604;51.976;7.594;2023-06-26T05:51:33;100522.53;;;30.03;46.01
20889;BME280;10604;51.976;7.594;2023-06-26T05:53:59;100526.53;;;30.23;45.68
20889;BME280;10604;51.976;7.594;2023-06-26T05:56:24;100530.72;;;29.86;45.95
20889;BME280;10604;51.976;7.594;2023-06-26T05:58:50;100535.00;;;29.81;46.05
20889;BME280;10604;51.976;7.594;2023-06-26T06:01:17;100544.97;;;28.76;48.16
20889;BME280;10604;51.976;7.594;2023-06-26T06:03:42;100551.13;;;29.98;46.85
20889;BME280;10604;51.976;7.594;2023-06-26T06:06:07;100549.03;;;30.09;46.29
20889;BME280;10604;51.976;7.594;2023-06-26T06:08:32;100546.75;;;30.59;45.27
20889;BME280;10604;51.976;7.594;2023-06-26T06:10:59;100552.09;;;30.53;45.45
20889;BME280;10604;51.976;7.594;2023-06-26T06:13:24;100557.66;;;30.59;45.10
20889;BME280;10604;51.976;7.594;2023-06-26T06:15:50;100557.84;;;30.19;45.88
20889;BME280;10604;51.976;7.594;2023-06-26T06:18:15;100557.09;;;29.78;45.55
20889;BME280;10604;51.976;7.594;2023-06-26T06:20:40;100554.53;;;29.84;46.03
20889;BME280;10604;51.976;7.594;2023-06-26T06:23:06;100563.53;;;30.40;45.63
20889;BME280;10604;51.976;7.594;2023-06-26T06:25:31;100559.88;;;30.25;45.13
20889;BME280;10604;51.976;7.594;2023-06-26T06:27:56;100559.69;;;30.57;45.45
20889;BME280;10604;51.976;7.594;2023-06-26T06:30:22;100561.31;;;30.97;43.79
20889;BME280;10604;51.976;7.594;2023-06-26T06:32:47;100564.47;;;31.09;44.03
20889;BME280;10604;51.976;7.594;2023-06-26T06:35:19;100570.25;;;30.60;44.87
20889;BME280;10604;51.976;7.594;2023-06-26T06:37:44;100576.31;;;30.40;45.04
20889;BME280;10604;51.976;7.594;2023-06-26T06:40:10;100589.13;;;30.23;45.20
20889;BME280;10604;51.976;7.594;2023-06-26T06:42:35;100574.91;;;30.44;44.68
20889;BME280;10604;51.976;7.594;2023-06-26T06:45:01;100586.25;;;30.55;45.36
20889;BME280;10604;51.976;7.594;2023-06-26T06:47:27;100583.53;;;30.55;44.81
20889;BME280;10604;51.976;7.594;2023-06-26T06:49:52;100586.59;;;30.60;44.99
20889;BME280;10604;51.976;7.594;2023-06-26T06:52:17;100585.66;;;30.37;45.38
20889;BME280;10604;51.976;7.594;2023-06-26T06:54:53;100589.91;;;30.40;45.42
20889;BME280;10604;51.976;7.594;2023-06-26T06:57:19;100578.78;;;31.11;43.91
20889;BME280;10604;51.976;7.594;2023-06-26T06:59:44;100587.19;;;30.70;45.12
20889;BME280;10604;51.976;7.594;2023-06-26T07:02:10;100598.22;;;31.00;44.23
20889;BME280;10604;51.976;7.594;2023-06-26T07:04:35;100602.66;;;30.47;44.78
20889;BME280;10604;51.976;7.594;2023-06-26T07:07:00;100610.66;;;29.93;45.31
20889;BME280;10604;51.976;7.594;2023-06-26T07:09:25;100616.41;;;30.07;45.83
20889;BME280;10604;51.976;7.594;2023-06-26T07:11:51;100631.97;;;30.29;45.44
20889;BME280;10604;51.976;7.594;2023-06-26T07:14:16;100639.25;;;29.49;46.99
20889;BME280;10604;51.976;7.594;2023-06-26T07:16:41;100642.59;;;30.16;46.07
20889;BME280;10604;51.976;7.594;2023-06-26T07:19:06;100649.59;;;30.02;46.44
20889;BME280;10604;51.976;7.594;2023-06-26T07:21:32;100632.78;;;29.74;46.64
20889;BME280;10604;51.976;7.594;2023-06-26T07:23:57;100641.41;;;30.49;46.20
20889;BME280;10604;51.976;7.594;2023-06-26T07:26:22;100644.50;;;29.99;46.59
20889;BME280;10604;51.976;7.594;2023-06-26T07:28:47;100650.13;;;29.81;46.33
20889;BME280;10604;51.976;7.594;2023-06-26T07:31:14;100643.97;;;30.04;46.82
20889;BME280;10604;51.976;7.594;2023-06-26T07:33:41;100648.53;;;31.20;45.61
20889;BME280;10604;51.976;7.594;2023-06-26T07:36:07;100657.84;;;30.72;45.74
20889;BME280;10604;51.976;7.594;2023-06-26T07:38:32;100663.66;;;31.00;45.03
20889;BME280;10604;51.976;7.594;2023-06-26T07:40:57;100657.50;;;31.29;44.10
20889;BME280;10604;51.976;7.594;2023-06-26T07:43:23;100662.84;;;31.68;44.44
20889;BME280;10604;51.976;7.594;2023-06-26T07:45:48;100675.59;;;30.68;45.01
20889;BME280;10604;51.976;7.594;2023-06-26T07:48:13;100663.97;;;30.27;45.11
20889;BME280;10604;51.976;7.594;2023-06-26T07:50:39;100672.00;;;30.76;43.78
20889;BME280;10604;51.976;7.594;2023-06-26T07:53:04;100653.25;;;31.49;42.97
20889;BME280;10604;51.976;7.594;2023-06-26T07:55:30;100660.41;;;31.27;43.16
20889;BME280;10604;51.976;7.594;2023-06-26T07:57:56;100651.09;;;31.44;43.72
20889;BME280;10604;51.976;7.594;2023-06-26T08:00:21;100646.47;;;31.68;43.07
20889;BME280;10604;51.976;7.594;2023-06-26T08:02:46;100646.09;;;32.88;41.04
20889;BME280;10604;51.976;7.594;2023-06-26T08:05:12;100644.63;;;32.71;41.23
20889;BME280;10604;51.976;7.594;2023-06-26T08:07:38;100656.13;;;32.81;41.09
20889;BME280;10604;51.976;7.594;2023-06-26T08:10:04;100648.56;;;32.83;41.00
20889;BME280;10604;51.976;7.594;2023-06-26T08:12:29;100644.75;;;32.99;40.06
20889;BME280;10604;51.976;7.594;2023-06-26T08:14:55;100660.94;;;33.36;40.58
20889;BME280;10604;51.976;7.594;2023-06-26T08:17:20;100655.25;;;33.59;40.34
20889;BME280;10604;51.976;7.594;2023-06-26T08:19:45;100667.72;;;33.90;39.69
20889;BME280;10604;51.976;7.594;2023-06-26T08:22:10;100660.63;;;33.95;39.42
20889;BME280;10604;51.976;7.594;2023-06-26T08:24:36;100682.06;;;34.54;38.11
20889;BME280;10604;51.976;7.594;2023-06-26T08:27:02;100684.06;;;33.34;39.41
20889;BME280;10604;51.976;7.594;2023-06-26T08:29:28;100679.59;;;32.76;40.99
20889;BME280;10604;51.976;7.594;2023-06-26T08:31:53;100688.19;;;32.43;41.13
20889;BME280;10604;51.976;7.594;2023-06-26T08:34:18;100691.56;;;32.31;41.16
20889;BME280;10604;51.976;7.594;2023-06-26T08:36:44;100688.16;;;32.87;40.56
20889;BME280;10604;51.976;7.594;2023-06-26T08:39:09;100691.16;;;32.04;41.41
20889;BME280;10604;51.976;7.594;2023-06-26T08:41:35;100691.09;;;32.56;40.93
20889;BME280;10604;51.976;7.594;2023-06-26T08:44:01;100699.03;;;31.99;42.17
20889;BME280;10604;51.976;7.594;2023-06-26T08:46:28;100693.72;;;33.30;40.51
20889;BME280;10604;51.976;7.594;2023-06-26T08:48:57;100705.31;;;32.52;40.64
20889;BME280;10604;51.976;7.594;2023-06-26T08:51:25;100700.38;;;32.03;42.12
20889;BME280;10604;51.976;7.594;2023-06-26T08:54:00;100692.34;;;32.24;41.76
20889;BME280;10604;51.976;7.594;2023-06-26T08:56:28;100707.97;;;32.31;41.33
20889;BME280;10604;51.976;7.594;2023-06-26T08:58:56;100707.81;;;32.97;40.66
20889;BME280;10604;51.976;7.594;2023-06-26T09:01:22;100714.09;;;32.33;41.17
20889;BME280;10604;51.976;7.594;2023-06-26T09:03:48;100707.56;;;32.92;40.68
20889;BME280;10604;51.976;7.594;2023-06-26T09:06:13;100713.91;;;33.29;39.47
20889;BME280;10604;51.976;7.594;2023-06-26T09:08:39;100711.34;;;33.27;40.03
20889;BME280;10604;51.976;7.594;2023-06-26T09:11:04;100711.75;;;34.16;38.06
20889;BME280;10604;51.976;7.594;2023-06-26T09:13:32;100710.06;;;34.15;38.52
20889;BME280;10604;51.976;7.594;2023-06-26T09:15:58;100714.38;;;34.24;37.82
20889;BME280;10604;51.976;7.594;2023-06-26T09:18:23;100717.25;;;34.85;37.22
20889;BME280;10604;51.976;7.594;2023-06-26T09:20:49;100719.03;;;35.19;36.57
20889;BME280;10604;51.976;7.594;2023-06-26T09:23:14;100725.94;;;35.82;34.97
20889;BME280;10604;51.976;7.594;2023-06-26T09:25:40;100727.53;;;34.42;36.00
20889;BME280;10604;51.976;7.594;2023-06-26T09:28:06;100739.03;;;33.75;37.70
20889;BME280;10604;51.976;7.594;2023-06-26T09:30:32;100733.59;;;33.60;37.39
20889;BME280;10604;51.976;7.594;2023-06-26T09:32:57;100734.25;;;32.46;39.01
20889;BME280;10604;51.976;7.594;2023-06-26T09:35:22;100739.13;;;32.21;39.86
20889;BME280;10604;51.976;7.594;2023-06-26T09:37:48;100735.72;;;32.19;39.23
20889;BME280;10604;51.976;7.594;2023-06-26T09:40:14;100737.16;;;33.03;37.67
20889;BME280;10604;51.976;7.594;2023-06-26T09:42:39;100737.75;;;33.56;37.79
20889;BME280;10604;51.976;7.594;2023-06-26T09:45:05;100730.03;;;34.09;36.73
20889;BME280;10604;51.976;7.594;2023-06-26T09:47:30;100738.81;;;33.76;36.88
20889;BME280;10604;51.976;7.594;2023-06-26T09:49:59;100747.50;;;34.29;36.79
20889;BME280;10604;51.976;7.594;2023-06-26T09:52:25;100731.44;;;34.61;36.03
20889;BME280;10604;51.976;7.594;2023-06-26T09:54:51;100740.16;;;34.36;35.82
20889;BME280;10604;51.976;7.594;2023-06-26T09:57:31;100753.94;;;33.00;36.51
20889;BME280;10604;51.976;7.594;2023-06-26T09:59:59;100750.84;;;32.07;38.05
20889;BME280;10604;51.976;7.594;2023-06-26T10:02:24;100748.94;;;33.40;36.73
20889;BME280;10604;51.976;7.594;2023-06-26T10:04:50;100743.69;;;34.02;34.97
20889;BME280;10604;51.976;7.594;2023-06-26T10:07:15;100751.28;;;34.28;34.94
20889;BME280;10604;51.976;7.594;2023-06-26T10:09:42;100761.44;;;33.85;35.31
20889;BME280;10604;51.976;7.594;2023-06-26T10:12:28;100756.69;;;34.84;34.47
20889;BME280;10604;51.976;7.594;2023-06-26T10:14:54;100759.53;;;35.10;33.96
20889;BME280;10604;51.976;7.594;2023-06-26T10:17:20;100755.72;;;36.51;32.35
20889;BME280;10604;51.976;7.594;2023-06-26T10:19:46;100778.88;;;37.84;31.64
20889;BME280;10604;51.976;7.594;2023-06-26T10:22:14;100754.25;;;36.42;31.45
20889;BME280;10604;51.976;7.594;2023-06-26T10:24:40;100755.00;;;34.83;32.90
20889;BME280;10604;51.976;7.594;2023-06-26T10:27:19;100759.88;;;34.53;33.51
20889;BME280;10604;51.976;7.594;2023-06-26T10:29:52;100768.56;;;34.29;33.87
20889;BME280;10604;51.976;7.594;2023-06-26T10:32:18;100773.03;;;34.36;32.74
20889;BME280;10604;51.976;7.594;2023-06-26T10:34:45;100768.34;;;34.92;30.80
20889;BME280;10604;51.976;7.594;2023-06-26T10:37:11;100775.59;;;35.13;30.92
20889;BME280;10604;51.976;7.594;2023-06-26T10:39:46;100767.34;;;36.53;30.82
20889;BME280;10604;51.976;7.594;2023-06-26T10:42:15;100770.63;;;34.89;30.83
20889;BME280;10604;51.976;7.594;2023-06-26T10:44:41;100778.28;;;35.54;30.07
20889;BME280;10604;51.976;7.594;2023-06-26T10:47:08;100765.91;;;36.18;29.47
20889;BME280;10604;51.976;7.594;2023-06-26T10:49:34;100774.56;;;35.95;29.96
20889;BME280;10604;51.976;7.594;2023-06-26T10:52:03;100779.22;;;36.34;29.78
20889;BME280;10604;51.976;7.594;2023-06-26T10:54:28;100781.59;;;35.23;31.36
20889;BME280;10604;51.976;7.594;2023-06-26T10:56:54;100791.22;;;33.95;32.17
20889;BME280;10604;51.976;7.594;2023-06-26T10:59:27;100790.38;;;34.43;32.40
20889;BME280;10604;51.976;7.594;2023-06-26T11:01:56;100790.81;;;35.77;30.97
20889;BME280;10604;51.976;7.594;2023-06-26T11:09:52;100772.13;;;36.91;27.70
20889;BME280;10604;51.976;7.594;2023-06-26T11:12:33;100783.53;;;37.45;28.41
20889;BME280;10604;51.976;7.594;2023-06-26T11:14:59;100783.81;;;36.79;28.42
20889;BME280;10604;51.976;7.594;2023-06-26T11:17:25;100776.16;;;35.50;29.57
20889;BME280;10604;51.976;7.594;2023-06-26T11:19:50;100782.00;;;36.21;28.98
20889;BME280;10604;51.976;7.594;2023-06-26T11:22:16;100785.56;;;36.01;29.71
20889;BME280;10604;51.976;7.594;2023-06-26T11:24:41;100792.31;;;35.79;28.93
20889;BME280;10604;51.976;7.594;2023-06-26T11:27:07;100796.50;;;35.75;29.49
20889;BME280;10604;51.976;7.594;2023-06-26T11:29:32;100796.28;;;37.40;28.48
20889;BME280;10604;51.976;7.594;2023-06-26T11:31:59;100814.72;;;36.55;26.74
20889;BME280;10604;51.976;7.594;2023-06-26T11:34:25;100803.09;;;36.07;27.01
20889;BME280;10604;51.976;7.594;2023-06-26T11:36:56;100801.88;;;35.36;28.15
20889;BME280;10604;51.976;7.594;2023-06-26T11:39:21;100800.50;;;35.18;28.41
20889;BME280;10604;51.976;7.594;2023-06-26T11:41:46;100801.16;;;34.45;30.35
20889;BME280;10604;51.976;7.594;2023-06-26T11:44:12;100810.59;;;34.42;30.59
20889;BME280;10604;51.976;7.594;2023-06-26T11:46:39;100814.28;;;34.28;30.19
20889;BME280;10604;51.976;7.594;2023-06-26T11:49:07;100818.25;;;33.47;29.89
20889;BME280;10604;51.976;7.594;2023-06-26T11:51:32;100817.84;;;33.29;29.40
20889;BME280;10604;51.976;7.594;2023-06-26T11:54:00;100840.72;;;33.57;29.88
20889;BME280;10604;51.976;7.594;2023-06-26T11:56:26;100829.06;;;34.62;29.28
20889;BME280;10604;51.976;7.594;2023-06-26T11:58:58;100835.47;;;35.38;29.00
20889;BME280;10604;51.976;7.594;2023-06-26T12:01:26;100836.19;;;35.66;28.65
20889;BME280;10604;51.976;7.594;2023-06-26T12:03:54;100831.00;;;35.97;28.35
20889;BME280;10604;51.976;7.594;2023-06-26T12:06:19;100830.81;;;36.32;29.08
20889;BME280;10604;51.976;7.594;2023-06-26T12:08:45;100822.38;;;36.27;28.16
20889;BME280;10604;51.976;7.594;2023-06-26T12:11:12;100822.66;;;37.09;28.64
20889;BME280;10604;51.976;7.594;2023-06-26T12:13:38;100832.03;;;35.96;28.55
20889;BME280;10604;51.976;7.594;2023-06-26T12:16:03;100829.09;;;34.96;29.42
20889;BME280;10604;51.976;7.594;2023-06-26T12:18:35;100844.09;;;35.28;29.93
20889;BME280;10604;51.976;7.594;2023-06-26T12:21:00;100847.00;;;34.57;30.14
20889;BME280;10604;51.976;7.594;2023-06-26T12:23:32;100841.22;;;34.46;30.46
20889;BME280;10604;51.976;7.594;2023-06-26T12:25:57;100837.78;;;36.01;28.50
20889;BME280;10604;51.976;7.594;2023-06-26T12:28:22;100834.41;;;36.52;27.94
20889;BME280;10604;51.976;7.594;2023-06-26T12:30:47;100827.22;;;36.18;28.97
20889;BME280;10604;51.976;7.594;2023-06-26T12:33:33;100845.19;;;36.47;27.92
20889;BME280;10604;51.976;7.594;2023-06-26T12:35:58;100864.59;;;35.99;27.33
20889;BME280;10604;51.976;7.594;2023-06-26T12:38:23;100853.63;;;35.99;27.22
20889;BME280;10604;51.976;7.594;2023-06-26T12:40:57;100843.06;;;35.36;28.14
20889;BME280;10604;51.976;7.594;2023-06-26T12:43:22;100853.47;;;35.60;27.94
20889;BME280;10604;51.976;7.594;2023-06-26T12:45:48;100849.41;;;35.43;28.58
20889;BME280;10604;51.976;7.594;2023-06-26T12:48:14;100844.94;;;35.28;27.66
20889;BME280;10604;51.976;7.594;2023-06-26T12:50:45;100870.75;;;35.47;27.66
20889;BME280;10604;51.976;7.594;2023-06-26T12:53:10;100867.31;;;34.70;27.50
20889;BME280;10604;51.976;7.594;2023-06-26T12:55:36;100864.78;;;35.30;27.14
20889;BME280;10604;51.976;7.594;2023-06-26T12:58:01;100867.13;;;35.94;26.23
20889;BME280;10604;51.976;7.594;2023-06-26T13:00:26;100869.78;;;35.68;26.74